sensor_id;sensor_type;location;lat;lon;timestamp;temperature;humidity
20432;DHT22;10375;49.136;10.366;2023-05-20T00:00:20;12.80;99.90
20432;DHT22;10375;49.136;10.366;2023-05-20T00:02:47;12.80;99.90
20432;DHT22;10375;49.136;10.366;2023-05-20T00:05:14;12.80;99.90
20432;DHT22;10375;49.136;10.366;2023-05-20T00:07:41;12.70;99.90
20432;DHT22;10375;49.136;10.366;2023-05-20T00:10:15;12.70;99.90
20432;DHT22;10375;49.136;10.366;2023-05-20T00:12:42;12.70;99.90
20432;DHT22;10375;49.136;10.366;2023-05-20T00:15:09;12.70;99.90
20432;DHT22;10375;49.136;10.366;2023-05-20T00:20:48;12.60;99.90
20432;DHT22;10375;49.136;10.366;2023-05-20T00:23:15;12.60;99.90
20432;DHT22;10375;49.136;10.366;2023-05-20T00:25:44;12.60;99.90
20432;DHT22;10375;49.136;10.366;2023-05-20T00:28:11;12.60;99.90
20432;DHT22;10375;49.136;10.366;2023-05-20T00:30:39;12.60;99.90
20432;DHT22;10375;49.136;10.366;2023-05-20T00:33:15;12.60;99.90
20432;DHT22;10375;49.136;10.366;2023-05-20T00:35:42;12.60;99.90
20432;DHT22;10375;49.136;10.366;2023-05-20T00:38:09;12.50;99.90
20432;DHT22;10375;49.136;10.366;2023-05-20T00:40:39;12.60;99.90
20432;DHT22;10375;49.136;10.366;2023-05-20T00:43:06;12.50;99.90
20432;DHT22;10375;49.136;10.366;2023-05-20T00:45:33;12.40;99.90
20432;DHT22;10375;49.136;10.366;2023-05-20T00:51:07;12.30;99.90
20432;DHT22;10375;49.136;10.366;2023-05-20T00:53:34;12.30;99.90
20432;DHT22;10375;49.136;10.366;2023-05-20T00:56:38;12.20;99.90
20432;DHT22;10375;49.136;10.366;2023-05-20T00:59:07;12.20;99.90
20432;DHT22;10375;49.136;10.366;2023-05-20T01:01:34;12.10;99.90
20432;DHT22;10375;49.136;10.366;2023-05-20T01:04:20;12.00;99.90
20432;DHT22;10375;49.136;10.366;2023-05-20T01:06:47;12.00;99.90
20432;DHT22;10375;49.136;10.366;2023-05-20T01:09:15;11.90;99.90
20432;DHT22;10375;49.136;10.366;2023-05-20T01:11:58;11.80;99.90
20432;DHT22;10375;49.136;10.366;2023-05-20T01:14:33;11.80;99.90
20432;DHT22;10375;49.136;10.366;2023-05-20T01:17:02;11.80;99.90
20432;DHT22;10375;49.136;10.366;2023-05-20T01:19:54;11.80;99.90
20432;DHT22;10375;49.136;10.366;2023-05-20T01:22:26;11.80;99.90
20432;DHT22;10375;49.136;10.366;2023-05-20T01:24:53;11.70;99.90
20432;DHT22;10375;49.136;10.366;2023-05-20T01:27:21;11.70;99.90
20432;DHT22;10375;49.136;10.366;2023-05-20T01:29:51;11.80;99.90
20432;DHT22;10375;49.136;10.366;2023-05-20T01:32:27;11.80;99.90
20432;DHT22;10375;49.136;10.366;2023-05-20T01:35:05;11.80;99.90
20432;DHT22;10375;49.136;10.366;2023-05-20T01:37:37;11.70;99.90
20432;DHT22;10375;49.136;10.366;2023-05-20T01:40:21;11.70;99.90
20432;DHT22;10375;49.136;10.366;2023-05-20T01:42:49;11.60;99.90
20432;DHT22;10375;49.136;10.366;2023-05-20T01:45:19;11.60;99.90
20432;DHT22;10375;49.136;10.366;2023-05-20T01:51:04;11.60;99.90
20432;DHT22;10375;49.136;10.366;2023-05-20T01:53:31;11.50;99.90
20432;DHT22;10375;49.136;10.366;2023-05-20T01:56:01;11.50;99.90
20432;DHT22;10375;49.136;10.366;2023-05-20T01:58:28;11.50;99.90
20432;DHT22;10375;49.136;10.366;2023-05-20T02:00:55;11.60;99.90
20432;DHT22;10375;49.136;10.366;2023-05-20T02:03:24;11.60;99.90
20432;DHT22;10375;49.136;10.366;2023-05-20T02:05:52;11.50;99.90
20432;DHT22;10375;49.136;10.366;2023-05-20T02:08:25;11.50;99.90
20432;DHT22;10375;49.136;10.366;2023-05-20T02:10:52;11.50;99.90
20432;DHT22;10375;49.136;10.366;2023-05-20T02:13:19;11.50;99.90
20432;DHT22;10375;49.136;10.366;2023-05-20T02:15:58;11.50;99.90
20432;DHT22;10375;49.136;10.366;2023-05-20T02:18:25;11.50;99.90
20432;DHT22;10375;49.136;10.366;2023-05-20T02:20:52;11.50;99.90
20432;DHT22;10375;49.136;10.366;2023-05-20T02:23:21;11.50;99.90
20432;DHT22;10375;49.136;10.366;2023-05-20T02:25:48;11.60;99.90
20432;DHT22;10375;49.136;10.366;2023-05-20T02:28:15;11.60;99.90
20432;DHT22;10375;49.136;10.366;2023-05-20T02:30:43;11.50;99.90
20432;DHT22;10375;49.136;10.366;2023-05-20T02:33:11;11.60;99.90
20432;DHT22;10375;49.136;10.366;2023-05-20T02:35:38;11.60;99.90
20432;DHT22;10375;49.136;10.366;2023-05-20T02:38:06;11.60;99.90
20432;DHT22;10375;49.136;10.366;2023-05-20T02:40:33;11.60;99.90
20432;DHT22;10375;49.136;10.366;2023-05-20T02:43:00;11.70;99.90
20432;DHT22;10375;49.136;10.366;2023-05-20T02:45:46;11.60;99.90
20432;DHT22;10375;49.136;10.366;2023-05-20T02:48:13;11.60;99.90
20432;DHT22;10375;49.136;10.366;2023-05-20T02:50:44;11.60;99.90
20432;DHT22;10375;49.136;10.366;2023-05-20T02:53:11;11.60;99.90
20432;DHT22;10375;49.136;10.366;2023-05-20T02:55:39;11.60;99.90
20432;DHT22;10375;49.136;10.366;2023-05-20T02:58:06;11.60;99.90
20432;DHT22;10375;49.136;10.366;2023-05-20T03:00:33;11.60;99.90
20432;DHT22;10375;49.136;10.366;2023-05-20T03:03:07;11.60;99.90
20432;DHT22;10375;49.136;10.366;2023-05-20T03:05:40;11.70;99.90
20432;DHT22;10375;49.136;10.366;2023-05-20T03:08:11;11.70;99.90
20432;DHT22;10375;49.136;10.366;2023-05-20T03:10:40;11.60;99.90
20432;DHT22;10375;49.136;10.366;2023-05-20T03:13:07;11.60;99.90
20432;DHT22;10375;49.136;10.366;2023-05-20T03:15:40;11.60;99.90
20432;DHT22;10375;49.136;10.366;2023-05-20T03:18:08;11.60;99.90
20432;DHT22;10375;49.136;10.366;2023-05-20T03:20:35;11.60;99.90
20432;DHT22;10375;49.136;10.366;2023-05-20T03:23:03;11.60;99.90
20432;DHT22;10375;49.136;10.366;2023-05-20T03:25:30;11.70;99.90
20432;DHT22;10375;49.136;10.366;2023-05-20T03:27:58;11.70;99.90
20432;DHT22;10375;49.136;10.366;2023-05-20T03:30:26;11.70;99.90
20432;DHT22;10375;49.136;10.366;2023-05-20T03:32:54;11.70;99.90
20432;DHT22;10375;49.136;10.366;2023-05-20T03:35:25;11.70;99.90
20432;DHT22;10375;49.136;10.366;2023-05-20T03:37:52;11.70;99.90
20432;DHT22;10375;49.136;10.366;2023-05-20T03:40:19;11.70;99.90
20432;DHT22;10375;49.136;10.366;2023-05-20T03:42:47;11.70;99.90
20432;DHT22;10375;49.136;10.366;2023-05-20T03:45:15;11.70;99.90
20432;DHT22;10375;49.136;10.366;2023-05-20T03:47:42;11.70;99.90
20432;DHT22;10375;49.136;10.366;2023-05-20T03:50:09;11.80;99.90
20432;DHT22;10375;49.136;10.366;2023-05-20T03:52:37;11.80;99.90
20432;DHT22;10375;49.136;10.366;2023-05-20T03:55:04;11.80;99.90
20432;DHT22;10375;49.136;10.366;2023-05-20T03:57:32;11.80;99.90
20432;DHT22;10375;49.136;10.366;2023-05-20T03:59:59;11.80;99.90
20432;DHT22;10375;49.136;10.366;2023-05-20T04:02:30;11.90;99.90
20432;DHT22;10375;49.136;10.366;2023-05-20T04:04:57;11.90;99.90
20432;DHT22;10375;49.136;10.366;2023-05-20T04:07:27;12.00;99.90
20432;DHT22;10375;49.136;10.366;2023-05-20T04:09:55;12.00;99.90
20432;DHT22;10375;49.136;10.366;2023-05-20T04:12:22;12.00;99.90
20432;DHT22;10375;49.136;10.366;2023-05-20T04:14:53;12.10;99.90
20432;DHT22;10375;49.136;10.366;2023-05-20T04:17:21;12.10;99.90
20432;DHT22;10375;49.136;10.366;2023-05-20T04:19:48;12.10;99.90
20432;DHT22;10375;49.136;10.366;2023-05-20T04:22:15;12.10;99.90
20432;DHT22;10375;49.136;10.366;2023-05-20T04:24:42;12.10;99.90
20432;DHT22;10375;49.136;10.366;2023-05-20T04:27:10;12.10;99.90
20432;DHT22;10375;49.136;10.366;2023-05-20T04:29:37;12.20;99.90
20432;DHT22;10375;49.136;10.366;2023-05-20T04:32:08;12.30;99.90
20432;DHT22;10375;49.136;10.366;2023-05-20T04:34:36;12.40;99.90
20432;DHT22;10375;49.136;10.366;2023-05-20T04:37:05;12.50;99.90
20432;DHT22;10375;49.136;10.366;2023-05-20T04:39:35;12.60;99.90
20432;DHT22;10375;49.136;10.366;2023-05-20T04:42:03;12.80;99.90
20432;DHT22;10375;49.136;10.366;2023-05-20T04:44:31;12.90;99.90
20432;DHT22;10375;49.136;10.366;2023-05-20T04:46:58;13.10;99.90
20432;DHT22;10375;49.136;10.366;2023-05-20T04:49:25;13.20;99.90
20432;DHT22;10375;49.136;10.366;2023-05-20T04:51:52;13.30;99.90
20432;DHT22;10375;49.136;10.366;2023-05-20T04:54:21;13.40;99.90
20432;DHT22;10375;49.136;10.366;2023-05-20T04:56:48;13.50;99.90
20432;DHT22;10375;49.136;10.366;2023-05-20T04:59:15;13.40;99.90
20432;DHT22;10375;49.136;10.366;2023-05-20T05:01:43;13.50;99.90
20432;DHT22;10375;49.136;10.366;2023-05-20T05:04:10;13.60;99.90
20432;DHT22;10375;49.136;10.366;2023-05-20T05:06:39;13.70;99.90
20432;DHT22;10375;49.136;10.366;2023-05-20T05:09:06;13.70;99.90
20432;DHT22;10375;49.136;10.366;2023-05-20T05:11:34;13.70;99.90
20432;DHT22;10375;49.136;10.366;2023-05-20T05:14:01;13.80;99.90
20432;DHT22;10375;49.136;10.366;2023-05-20T05:16:28;13.80;99.90
20432;DHT22;10375;49.136;10.366;2023-05-20T05:18:55;13.80;99.90
20432;DHT22;10375;49.136;10.366;2023-05-20T05:21:23;13.80;99.90
20432;DHT22;10375;49.136;10.366;2023-05-20T05:23:50;14.30;99.90
20432;DHT22;10375;49.136;10.366;2023-05-20T05:26:17;14.80;99.90
20432;DHT22;10375;49.136;10.366;2023-05-20T05:28:44;15.50;99.90
20432;DHT22;10375;49.136;10.366;2023-05-20T05:31:11;16.70;99.90
20432;DHT22;10375;49.136;10.366;2023-05-20T05:33:39;19.20;99.90
20432;DHT22;10375;49.136;10.366;2023-05-20T05:36:06;19.40;99.90
20432;DHT22;10375;49.136;10.366;2023-05-20T05:38:34;19.10;99.90
20432;DHT22;10375;49.136;10.366;2023-05-20T05:41:02;19.70;99.90
20432;DHT22;10375;49.136;10.366;2023-05-20T05:43:29;20.70;99.00
20432;DHT22;10375;49.136;10.366;2023-05-20T05:45:57;19.70;99.50
20432;DHT22;10375;49.136;10.366;2023-05-20T05:48:24;18.70;99.90
20432;DHT22;10375;49.136;10.366;2023-05-20T05:50:52;17.40;99.90
20432;DHT22;10375;49.136;10.366;2023-05-20T05:53:19;16.10;99.90
20432;DHT22;10375;49.136;10.366;2023-05-20T05:55:46;15.60;99.90
20432;DHT22;10375;49.136;10.366;2023-05-20T05:58:13;16.20;99.90
20432;DHT22;10375;49.136;10.366;2023-05-20T06:00:40;17.70;99.90
20432;DHT22;10375;49.136;10.366;2023-05-20T06:03:07;19.60;99.90
20432;DHT22;10375;49.136;10.366;2023-05-20T06:05:35;21.90;97.70
20432;DHT22;10375;49.136;10.366;2023-05-20T06:08:02;22.30;95.10
20432;DHT22;10375;49.136;10.366;2023-05-20T06:10:29;23.20;94.30
20432;DHT22;10375;49.136;10.366;2023-05-20T06:12:56;23.60;93.60
20432;DHT22;10375;49.136;10.366;2023-05-20T06:15:23;23.10;92.80
20432;DHT22;10375;49.136;10.366;2023-05-20T06:17:51;23.30;93.10
20432;DHT22;10375;49.136;10.366;2023-05-20T06:20:18;24.30;90.80
20432;DHT22;10375;49.136;10.366;2023-05-20T06:22:46;23.80;91.80
20432;DHT22;10375;49.136;10.366;2023-05-20T06:25:13;24.30;91.70
20432;DHT22;10375;49.136;10.366;2023-05-20T06:27:40;24.70;90.20
20432;DHT22;10375;49.136;10.366;2023-05-20T06:30:07;25.10;89.50
20432;DHT22;10375;49.136;10.366;2023-05-20T06:32:35;26.70;86.10
20432;DHT22;10375;49.136;10.366;2023-05-20T06:35:02;26.70;83.40
20432;DHT22;10375;49.136;10.366;2023-05-20T06:37:29;27.30;82.60
20432;DHT22;10375;49.136;10.366;2023-05-20T06:39:56;26.50;82.10
20432;DHT22;10375;49.136;10.366;2023-05-20T06:42:23;26.40;81.50
20432;DHT22;10375;49.136;10.366;2023-05-20T06:44:50;24.80;84.20
20432;DHT22;10375;49.136;10.366;2023-05-20T06:47:18;24.40;85.60
20432;DHT22;10375;49.136;10.366;2023-05-20T06:49:45;24.90;86.30
20432;DHT22;10375;49.136;10.366;2023-05-20T06:52:13;24.70;86.70
20432;DHT22;10375;49.136;10.366;2023-05-20T06:54:40;24.50;86.50
20432;DHT22;10375;49.136;10.366;2023-05-20T06:57:08;24.70;87.30
20432;DHT22;10375;49.136;10.366;2023-05-20T06:59:39;24.10;87.10
20432;DHT22;10375;49.136;10.366;2023-05-20T07:02:07;23.20;88.80
20432;DHT22;10375;49.136;10.366;2023-05-20T07:04:34;24.60;87.00
20432;DHT22;10375;49.136;10.366;2023-05-20T07:07:01;25.70;85.00
20432;DHT22;10375;49.136;10.366;2023-05-20T07:09:29;26.90;83.80
20432;DHT22;10375;49.136;10.366;2023-05-20T07:11:56;26.70;82.20
20432;DHT22;10375;49.136;10.366;2023-05-20T07:14:23;26.60;81.40
20432;DHT22;10375;49.136;10.366;2023-05-20T07:16:50;24.20;84.60
20432;DHT22;10375;49.136;10.366;2023-05-20T07:19:17;25.10;85.10
20432;DHT22;10375;49.136;10.366;2023-05-20T07:21:45;25.10;84.30
20432;DHT22;10375;49.136;10.366;2023-05-20T07:24:13;24.60;87.30
20432;DHT22;10375;49.136;10.366;2023-05-20T07:26:40;24.50;84.40
20432;DHT22;10375;49.136;10.366;2023-05-20T07:29:08;25.00;87.10
20432;DHT22;10375;49.136;10.366;2023-05-20T07:31:36;24.20;84.40
20432;DHT22;10375;49.136;10.366;2023-05-20T07:34:03;23.80;86.80
20432;DHT22;10375;49.136;10.366;2023-05-20T07:36:31;24.90;84.80
20432;DHT22;10375;49.136;10.366;2023-05-20T07:38:58;23.90;84.60
20432;DHT22;10375;49.136;10.366;2023-05-20T07:41:31;24.60;86.20
20432;DHT22;10375;49.136;10.366;2023-05-20T07:44:01;24.10;84.70
20432;DHT22;10375;49.136;10.366;2023-05-20T07:46:28;22.00;88.70
20432;DHT22;10375;49.136;10.366;2023-05-20T07:48:56;21.50;91.10
20432;DHT22;10375;49.136;10.366;2023-05-20T07:51:23;21.90;91.00
20432;DHT22;10375;49.136;10.366;2023-05-20T07:53:50;21.20;90.70
20432;DHT22;10375;49.136;10.366;2023-05-20T07:56:17;20.90;91.60
20432;DHT22;10375;49.136;10.366;2023-05-20T07:58:52;21.20;91.70
20432;DHT22;10375;49.136;10.366;2023-05-20T08:01:19;21.70;92.00
20432;DHT22;10375;49.136;10.366;2023-05-20T08:03:47;21.20;91.60
20432;DHT22;10375;49.136;10.366;2023-05-20T08:06:14;20.70;92.80
20432;DHT22;10375;49.136;10.366;2023-05-20T08:08:42;20.20;92.70
20432;DHT22;10375;49.136;10.366;2023-05-20T08:11:09;20.10;92.90
20432;DHT22;10375;49.136;10.366;2023-05-20T08:13:36;19.80;93.80
20432;DHT22;10375;49.136;10.366;2023-05-20T08:16:03;19.90;93.90
20432;DHT22;10375;49.136;10.366;2023-05-20T08:18:33;20.30;93.60
20432;DHT22;10375;49.136;10.366;2023-05-20T08:21:00;21.00;92.50
20432;DHT22;10375;49.136;10.366;2023-05-20T08:23:28;21.70;92.80
20432;DHT22;10375;49.136;10.366;2023-05-20T08:25:55;22.00;91.00
20432;DHT22;10375;49.136;10.366;2023-05-20T08:28:23;22.00;91.10
20432;DHT22;10375;49.136;10.366;2023-05-20T08:30:50;22.40;91.10
20432;DHT22;10375;49.136;10.366;2023-05-20T08:33:17;22.50;91.00
20432;DHT22;10375;49.136;10.366;2023-05-20T08:35:45;22.10;90.00
20432;DHT22;10375;49.136;10.366;2023-05-20T08:38:12;21.80;91.20
20432;DHT22;10375;49.136;10.366;2023-05-20T08:40:39;21.90;91.40
20432;DHT22;10375;49.136;10.366;2023-05-20T08:43:06;22.20;90.10
20432;DHT22;10375;49.136;10.366;2023-05-20T08:45:37;22.40;90.20
20432;DHT22;10375;49.136;10.366;2023-05-20T08:48:04;22.40;90.70
20432;DHT22;10375;49.136;10.366;2023-05-20T08:50:33;22.80;89.80
20432;DHT22;10375;49.136;10.366;2023-05-20T08:53:00;23.10;90.40
20432;DHT22;10375;49.136;10.366;2023-05-20T08:55:41;22.10;90.40
20432;DHT22;10375;49.136;10.366;2023-05-20T08:58:09;21.50;91.20
20432;DHT22;10375;49.136;10.366;2023-05-20T09:00:36;20.70;92.00
20432;DHT22;10375;49.136;10.366;2023-05-20T09:03:04;20.10;93.00
20432;DHT22;10375;49.136;10.366;2023-05-20T09:05:31;19.70;93.00
20432;DHT22;10375;49.136;10.366;2023-05-20T09:08:09;19.60;93.70
20432;DHT22;10375;49.136;10.366;2023-05-20T09:10:40;19.90;94.60
20432;DHT22;10375;49.136;10.366;2023-05-20T09:13:09;20.10;94.80
20432;DHT22;10375;49.136;10.366;2023-05-20T09:15:36;20.40;94.30
20432;DHT22;10375;49.136;10.366;2023-05-20T09:18:06;21.30;92.00
20432;DHT22;10375;49.136;10.366;2023-05-20T09:20:35;21.40;91.40
20432;DHT22;10375;49.136;10.366;2023-05-20T09:23:05;21.30;92.10
20432;DHT22;10375;49.136;10.366;2023-05-20T09:25:33;21.10;91.80
20432;DHT22;10375;49.136;10.366;2023-05-20T09:28:05;20.90;91.40
20432;DHT22;10375;49.136;10.366;2023-05-20T09:30:33;20.60;91.90
20432;DHT22;10375;49.136;10.366;2023-05-20T09:33:03;20.20;93.00
20432;DHT22;10375;49.136;10.366;2023-05-20T09:35:34;20.50;93.00
20432;DHT22;10375;49.136;10.366;2023-05-20T09:38:05;20.70;92.50
20432;DHT22;10375;49.136;10.366;2023-05-20T09:40:35;21.00;91.10
20432;DHT22;10375;49.136;10.366;2023-05-20T09:43:05;21.80;91.80
20432;DHT22;10375;49.136;10.366;2023-05-20T09:45:37;22.80;90.60
20432;DHT22;10375;49.136;10.366;2023-05-20T09:48:06;23.70;90.40
20432;DHT22;10375;49.136;10.366;2023-05-20T09:50:34;23.60;88.60
20432;DHT22;10375;49.136;10.366;2023-05-20T09:53:03;23.40;86.40
20432;DHT22;10375;49.136;10.366;2023-05-20T09:55:30;22.70;90.10
20432;DHT22;10375;49.136;10.366;2023-05-20T09:58:02;22.90;87.20
20432;DHT22;10375;49.136;10.366;2023-05-20T10:00:29;23.50;87.60
20432;DHT22;10375;49.136;10.366;2023-05-20T10:02:58;23.60;89.00
20432;DHT22;10375;49.136;10.366;2023-05-20T10:05:34;23.10;87.70
20432;DHT22;10375;49.136;10.366;2023-05-20T10:11:24;23.60;88.00
20432;DHT22;10375;49.136;10.366;2023-05-20T10:14:25;23.90;89.00
20432;DHT22;10375;49.136;10.366;2023-05-20T10:17:24;24.50;86.00
20432;DHT22;10375;49.136;10.366;2023-05-20T10:19:57;24.00;85.50
20432;DHT22;10375;49.136;10.366;2023-05-20T10:22:27;23.90;86.70
20432;DHT22;10375;49.136;10.366;2023-05-20T10:24:59;24.60;89.60
20432;DHT22;10375;49.136;10.366;2023-05-20T10:27:26;24.30;83.00
20432;DHT22;10375;49.136;10.366;2023-05-20T10:29:55;24.10;84.30
20432;DHT22;10375;49.136;10.366;2023-05-20T10:32:28;24.40;82.40
20432;DHT22;10375;49.136;10.366;2023-05-20T10:35:06;24.90;84.30
20432;DHT22;10375;49.136;10.366;2023-05-20T10:37:45;24.70;85.80
20432;DHT22;10375;49.136;10.366;2023-05-20T10:40:15;24.50;82.80
20432;DHT22;10375;49.136;10.366;2023-05-20T10:42:44;23.90;87.20
20432;DHT22;10375;49.136;10.366;2023-05-20T10:45:12;23.50;84.60
20432;DHT22;10375;49.136;10.366;2023-05-20T10:47:57;23.40;85.00
20432;DHT22;10375;49.136;10.366;2023-05-20T10:50:26;23.40;86.00
20432;DHT22;10375;49.136;10.366;2023-05-20T10:53:01;23.30;83.60
20432;DHT22;10375;49.136;10.366;2023-05-20T10:55:38;22.70;84.60
20432;DHT22;10375;49.136;10.366;2023-05-20T10:58:06;22.30;86.60
20432;DHT22;10375;49.136;10.366;2023-05-20T11:00:34;22.30;87.90
20432;DHT22;10375;49.136;10.366;2023-05-20T11:03:04;22.50;86.30
20432;DHT22;10375;49.136;10.366;2023-05-20T11:05:32;22.70;87.00
20432;DHT22;10375;49.136;10.366;2023-05-20T11:08:05;23.10;87.10
20432;DHT22;10375;49.136;10.366;2023-05-20T11:10:55;23.60;85.60
20432;DHT22;10375;49.136;10.366;2023-05-20T11:13:23;23.30;85.00
20432;DHT22;10375;49.136;10.366;2023-05-20T11:15:51;23.30;88.20
20432;DHT22;10375;49.136;10.366;2023-05-20T11:18:26;23.50;85.20
20432;DHT22;10375;49.136;10.366;2023-05-20T11:20:58;23.90;83.30
20432;DHT22;10375;49.136;10.366;2023-05-20T11:23:28;24.20;86.30
20432;DHT22;10375;49.136;10.366;2023-05-20T11:25:56;24.30;84.60
20432;DHT22;10375;49.136;10.366;2023-05-20T11:28:25;24.00;84.10
20432;DHT22;10375;49.136;10.366;2023-05-20T11:30:53;24.10;82.00
20432;DHT22;10375;49.136;10.366;2023-05-20T11:33:24;23.60;84.60
20432;DHT22;10375;49.136;10.366;2023-05-20T11:35:53;23.30;84.30
20432;DHT22;10375;49.136;10.366;2023-05-20T11:38:20;23.30;86.00
20432;DHT22;10375;49.136;10.366;2023-05-20T11:40:54;23.40;83.70
20432;DHT22;10375;49.136;10.366;2023-05-20T11:43:23;23.70;87.30
20432;DHT22;10375;49.136;10.366;2023-05-20T11:45:57;23.60;83.80
20432;DHT22;10375;49.136;10.366;2023-05-20T11:48:27;24.10;84.50
20432;DHT22;10375;49.136;10.366;2023-05-20T11:50:55;24.50;80.90
20432;DHT22;10375;49.136;10.366;2023-05-20T11:53:24;24.30;82.00
20432;DHT22;10375;49.136;10.366;2023-05-20T11:55:52;24.30;84.80
20432;DHT22;10375;49.136;10.366;2023-05-20T11:58:21;24.30;84.30
20432;DHT22;10375;49.136;10.366;2023-05-20T12:00:48;24.70;82.60
20432;DHT22;10375;49.136;10.366;2023-05-20T12:03:31;24.90;83.30
20432;DHT22;10375;49.136;10.366;2023-05-20T12:06:02;24.30;82.20
20432;DHT22;10375;49.136;10.366;2023-05-20T12:08:29;23.70;83.20
20432;DHT22;10375;49.136;10.366;2023-05-20T12:10:57;23.80;83.30
20432;DHT22;10375;49.136;10.366;2023-05-20T12:13:24;23.90;85.10
20432;DHT22;10375;49.136;10.366;2023-05-20T12:15:51;23.80;83.00
20432;DHT22;10375;49.136;10.366;2023-05-20T12:18:18;23.40;85.60
20432;DHT22;10375;49.136;10.366;2023-05-20T12:20:45;23.40;85.30
20432;DHT22;10375;49.136;10.366;2023-05-20T12:23:12;23.30;85.80
20432;DHT22;10375;49.136;10.366;2023-05-20T12:25:39;23.70;86.00
20432;DHT22;10375;49.136;10.366;2023-05-20T12:28:08;23.90;81.60
20432;DHT22;10375;49.136;10.366;2023-05-20T12:30:36;23.80;86.70
20432;DHT22;10375;49.136;10.366;2023-05-20T12:33:03;23.80;84.50
20432;DHT22;10375;49.136;10.366;2023-05-20T12:35:41;23.90;82.30
20432;DHT22;10375;49.136;10.366;2023-05-20T12:38:09;23.70;82.90
20432;DHT22;10375;49.136;10.366;2023-05-20T12:40:36;23.50;83.20
20432;DHT22;10375;49.136;10.366;2023-05-20T12:43:04;23.70;86.00
20432;DHT22;10375;49.136;10.366;2023-05-20T12:45:32;24.00;84.10
20432;DHT22;10375;49.136;10.366;2023-05-20T12:48:00;24.40;84.20
20432;DHT22;10375;49.136;10.366;2023-05-20T12:50:27;24.70;82.90
20432;DHT22;10375;49.136;10.366;2023-05-20T12:52:55;25.10;82.60
20432;DHT22;10375;49.136;10.366;2023-05-20T12:55:22;25.40;81.10
20432;DHT22;10375;49.136;10.366;2023-05-20T12:57:49;25.50;78.20
20432;DHT22;10375;49.136;10.366;2023-05-20T13:00:17;25.30;76.40
20432;DHT22;10375;49.136;10.366;2023-05-20T13:02:44;24.80;79.40
20432;DHT22;10375;49.136;10.366;2023-05-20T13:05:12;24.30;81.30
20432;DHT22;10375;49.136;10.366;2023-05-20T13:07:39;24.00;81.30
20432;DHT22;10375;49.136;10.366;2023-05-20T13:10:07;23.70;82.70
20432;DHT22;10375;49.136;10.366;2023-05-20T13:12:34;23.50;83.90
20432;DHT22;10375;49.136;10.366;2023-05-20T13:15:02;23.50;85.10
20432;DHT22;10375;49.136;10.366;2023-05-20T13:17:30;23.60;86.20
20432;DHT22;10375;49.136;10.366;2023-05-20T13:19:57;23.50;84.00
20432;DHT22;10375;49.136;10.366;2023-05-20T13:22:25;23.50;84.70
20432;DHT22;10375;49.136;10.366;2023-05-20T13:24:52;23.30;84.70
20432;DHT22;10375;49.136;10.366;2023-05-20T13:27:19;23.00;85.10
20432;DHT22;10375;49.136;10.366;2023-05-20T13:29:46;22.60;85.80
20432;DHT22;10375;49.136;10.366;2023-05-20T13:32:13;22.50;86.80
20432;DHT22;10375;49.136;10.366;2023-05-20T13:34:40;22.40;86.80
20432;DHT22;10375;49.136;10.366;2023-05-20T13:37:07;22.60;89.70
20432;DHT22;10375;49.136;10.366;2023-05-20T13:39:34;22.60;85.60
20432;DHT22;10375;49.136;10.366;2023-05-20T13:42:02;22.40;87.10
20432;DHT22;10375;49.136;10.366;2023-05-20T13:44:30;22.60;88.30
20432;DHT22;10375;49.136;10.366;2023-05-20T13:46:58;23.00;85.10
20432;DHT22;10375;49.136;10.366;2023-05-20T13:49:25;23.20;86.30
20432;DHT22;10375;49.136;10.366;2023-05-20T13:51:53;23.80;87.80
20432;DHT22;10375;49.136;10.366;2023-05-20T13:54:20;24.40;85.30
20432;DHT22;10375;49.136;10.366;2023-05-20T13:56:47;24.40;83.70
20432;DHT22;10375;49.136;10.366;2023-05-20T13:59:15;24.20;85.30
20432;DHT22;10375;49.136;10.366;2023-05-20T14:01:42;24.00;83.00
20432;DHT22;10375;49.136;10.366;2023-05-20T14:04:11;24.10;85.30
20432;DHT22;10375;49.136;10.366;2023-05-20T14:06:39;24.10;84.00
20432;DHT22;10375;49.136;10.366;2023-05-20T14:09:07;24.10;83.10
20432;DHT22;10375;49.136;10.366;2023-05-20T14:11:36;23.70;84.10
20432;DHT22;10375;49.136;10.366;2023-05-20T14:14:03;23.40;86.30
20432;DHT22;10375;49.136;10.366;2023-05-20T14:16:31;23.10;87.60
20432;DHT22;10375;49.136;10.366;2023-05-20T14:18:58;23.10;87.10
20432;DHT22;10375;49.136;10.366;2023-05-20T14:21:26;23.00;88.90
20432;DHT22;10375;49.136;10.366;2023-05-20T14:23:53;23.10;86.60
20432;DHT22;10375;49.136;10.366;2023-05-20T14:26:20;23.00;87.60
20432;DHT22;10375;49.136;10.366;2023-05-20T14:28:47;22.80;87.00
20432;DHT22;10375;49.136;10.366;2023-05-20T14:31:15;22.70;88.60
20432;DHT22;10375;49.136;10.366;2023-05-20T14:33:42;22.90;88.50
20432;DHT22;10375;49.136;10.366;2023-05-20T14:36:10;23.30;87.70
20432;DHT22;10375;49.136;10.366;2023-05-20T14:38:37;23.30;88.10
20432;DHT22;10375;49.136;10.366;2023-05-20T14:41:04;23.20;88.10
20432;DHT22;10375;49.136;10.366;2023-05-20T14:43:31;22.90;88.80
20432;DHT22;10375;49.136;10.366;2023-05-20T14:46:00;22.70;90.30
20432;DHT22;10375;49.136;10.366;2023-05-20T14:48:28;22.70;90.50
20432;DHT22;10375;49.136;10.366;2023-05-20T14:50:56;22.70;89.10
20432;DHT22;10375;49.136;10.366;2023-05-20T14:53:23;22.50;90.10
20432;DHT22;10375;49.136;10.366;2023-05-20T14:55:50;22.50;90.90
20432;DHT22;10375;49.136;10.366;2023-05-20T14:58:17;22.40;89.60
20432;DHT22;10375;49.136;10.366;2023-05-20T15:00:45;22.10;90.30
20432;DHT22;10375;49.136;10.366;2023-05-20T15:03:12;22.10;90.10
20432;DHT22;10375;49.136;10.366;2023-05-20T15:05:39;22.00;90.80
20432;DHT22;10375;49.136;10.366;2023-05-20T15:08:08;22.10;90.60
20432;DHT22;10375;49.136;10.366;2023-05-20T15:10:35;22.10;90.50
20432;DHT22;10375;49.136;10.366;2023-05-20T15:13:03;22.20;90.30
20432;DHT22;10375;49.136;10.366;2023-05-20T15:15:30;22.10;90.90
20432;DHT22;10375;49.136;10.366;2023-05-20T15:17:57;22.10;91.00
20432;DHT22;10375;49.136;10.366;2023-05-20T15:20:24;22.40;91.10
20432;DHT22;10375;49.136;10.366;2023-05-20T15:22:52;22.70;89.60
20432;DHT22;10375;49.136;10.366;2023-05-20T15:25:20;23.00;88.20
20432;DHT22;10375;49.136;10.366;2023-05-20T15:27:47;23.20;89.00
20432;DHT22;10375;49.136;10.366;2023-05-20T15:30:14;23.50;87.00
20432;DHT22;10375;49.136;10.366;2023-05-20T15:32:41;23.50;87.90
20432;DHT22;10375;49.136;10.366;2023-05-20T15:35:09;23.50;85.70
20432;DHT22;10375;49.136;10.366;2023-05-20T15:37:40;23.50;86.60